Time;durP1;ratioP1;P1;durP2;ratioP2;P2;SDS_P1;SDS_P2;PMS_P1;PMS_P2;Temp;Humidity;BMP_temperature;BMP_pressure;BME280_temperature;BME280_humidity;BME280_pressure;Samples;Min_cycle;Max_cycle;Signal;HPM_P1;HPM_P2
2023/03/21 00:00:29;;;;;;;1.30;1.20;;;9.30;99.90;;;;;;5001722;28;20488;-65
2023/03/21 00:02:55;;;;;;;1.52;1.42;;;9.30;99.90;;;;;;4997795;28;20038;-65
2023/03/21 00:05:21;;;;;;;2.15;2.05;;;9.30;99.90;;;;;;5012369;28;20113;-65
2023/03/21 00:07:46;;;;;;;0.95;0.95;;;9.30;99.90;;;;;;5011841;28;20053;-65
2023/03/21 00:10:12;;;;;;;0.85;0.85;;;9.30;99.90;;;;;;5003297;28;20050;-65
2023/03/21 00:12:38;;;;;;;0.73;0.73;;;9.30;99.90;;;;;;4999057;28;20431;-65
2023/03/21 00:15:09;;;;;;;1.08;0.90;;;9.30;99.90;;;;;;5009797;28;20136;-65
2023/03/21 00:17:34;;;;;;;0.55;0.55;;;9.30;99.90;;;;;;5005122;28;20049;-65
2023/03/21 00:20:04;;;;;;;0.80;0.80;;;9.30;99.90;;;;;;5000278;28;20068;-65
2023/03/21 00:22:30;;;;;;;0.57;0.57;;;9.30;99.90;;;;;;5006704;28;20052;-64
2023/03/21 00:24:56;;;;;;;2.05;1.60;;;9.30;99.90;;;;;;4999809;28;20038;-65
2023/03/21 00:27:22;;;;;;;0.10;0.10;;;9.30;99.90;;;;;;5007074;28;20057;-65
2023/03/21 00:29:48;;;;;;;0.98;0.95;;;9.30;99.90;;;;;;5011817;28;20104;-65
2023/03/21 00:32:15;;;;;;;0.40;0.40;;;9.30;99.90;;;;;;5011593;28;20080;-65
2023/03/21 00:34:41;;;;;;;3.97;1.70;;;9.30;99.90;;;;;;4998192;28;20068;-65
2023/03/21 00:37:08;;;;;;;0.40;0.40;;;9.30;99.90;;;;;;5006911;28;20100;-65
2023/03/21 00:39:34;;;;;;;3.40;2.30;;;9.30;99.90;;;;;;5003747;28;20438;-65
2023/03/21 00:42:00;;;;;;;0.82;0.82;;;9.30;99.90;;;;;;5001203;28;20085;-65
2023/03/21 00:44:25;;;;;;;1.58;1.05;;;9.30;99.90;;;;;;5010323;28;20073;-65
2023/03/21 00:46:51;;;;;;;4.68;1.23;;;9.30;99.90;;;;;;4999831;28;20137;-65
2023/03/21 00:49:19;;;;;;;7.47;2.47;;;9.30;99.90;;;;;;5010195;28;20169;-65
2023/03/21 00:51:45;;;;;;;1.20;1.20;;;9.30;99.90;;;;;;5007520;28;20080;-65
2023/03/21 00:54:11;;;;;;;0.17;0.17;;;9.30;99.90;;;;;;4997961;28;20062;-65
2023/03/21 00:56:37;;;;;;;0.20;0.20;;;9.30;99.90;;;;;;5011071;28;20052;-65
2023/03/21 00:59:03;;;;;;;1.60;1.10;;;9.30;99.90;;;;;;5005971;28;20482;-65
2023/03/21 01:01:30;;;;;;;0.40;0.40;;;9.30;99.90;;;;;;5001674;28;20046;-65
2023/03/21 01:04:04;;;;;;;0.10;0.10;;;9.30;99.90;;;;;;5008395;28;20149;-65
2023/03/21 01:06:38;;;;;;;4.03;2.22;;;9.30;99.90;;;;;;4999362;28;20129;-65
2023/03/21 01:09:05;;;;;;;2.75;2.33;;;9.30;99.90;;;;;;5002610;28;20468;-65
2023/03/21 01:11:31;;;;;;;0.20;0.20;;;9.30;99.90;;;;;;4999259;28;20041;-65
2023/03/21 01:13:57;;;;;;;0.57;0.57;;;9.30;99.90;;;;;;5011517;28;20053;-65
2023/03/21 01:16:23;;;;;;;1.77;1.65;;;9.30;99.90;;;;;;5009255;28;20033;-65
2023/03/21 01:18:48;;;;;;;0.20;0.20;;;9.30;99.90;;;;;;4998505;28;20046;-64
2023/03/21 01:21:14;;;;;;;3.03;2.28;;;9.30;99.90;;;;;;5000492;28;20034;-65
2023/03/21 01:23:42;;;;;;;3.00;2.35;;;9.30;99.90;;;;;;5010645;28;20042;-65
2023/03/21 01:26:09;;;;;;;2.13;1.92;;;9.30;99.90;;;;;;5009043;28;20044;-65
2023/03/21 01:28:36;;;;;;;24.45;2.22;;;9.30;99.90;;;;;;5006337;28;20089;-65
2023/03/21 01:31:04;;;;;;;1.08;0.68;;;9.30;99.90;;;;;;5008351;28;20042;-65
2023/03/21 01:33:31;;;;;;;1.35;1.25;;;9.30;99.90;;;;;;5009491;28;20041;-65
2023/03/21 01:35:57;;;;;;;1.10;1.10;;;9.30;99.90;;;;;;5008158;28;20092;-65
2023/03/21 01:38:23;;;;;;;2.00;1.60;;;9.30;99.90;;;;;;5001933;28;20550;-65
2023/03/21 01:40:50;;;;;;;1.10;1.10;;;9.30;99.90;;;;;;5010195;28;20121;-65
2023/03/21 01:43:29;;;;;;;2.08;1.98;;;9.30;99.90;;;;;;5011337;28;20539;-65
2023/03/21 01:46:36;;;;;;;12.93;2.00;;;9.30;99.90;;;;;;5003177;28;20117;-64
2023/03/21 01:49:26;;;;;;;4.45;4.10;;;9.30;99.90;;;;;;4947619;28;20050;-65
2023/03/21 01:52:01;;;;;;;1.73;1.63;;;9.30;99.90;;;;;;4950122;29;20071;-65
2023/03/21 01:54:32;;;;;;;2.38;2.13;;;9.30;99.90;;;;;;4990929;28;20397;-64
2023/03/21 01:57:02;;;;;;;2.25;2.08;;;9.30;99.90;;;;;;5005685;28;20074;-64
2023/03/21 01:59:53;;;;;;;1.15;1.15;;;9.30;99.90;;;;;;4999438;28;20050;-64
2023/03/21 02:02:24;;;;;;;0.63;0.63;;;9.30;99.90;;;;;;5002835;28;20049;-64
2023/03/21 02:04:54;;;;;;;1.15;1.15;;;9.30;99.90;;;;;;5011114;28;20048;-65
2023/03/21 02:07:34;;;;;;;0.28;0.28;;;9.30;99.90;;;;;;4999987;28;20177;-65
2023/03/21 02:10:03;;;;;;;5.10;1.85;;;9.30;99.90;;;;;;5000460;28;20068;-65
2023/03/21 02:12:30;;;;;;;0.40;0.40;;;9.30;99.90;;;;;;5002992;28;20145;-65
2023/03/21 02:14:56;;;;;;;0.73;0.73;;;9.30;99.90;;;;;;5009833;28;20425;-65
2023/03/21 02:17:41;;;;;;;1.27;1.23;;;9.30;99.90;;;;;;5004622;28;20045;-64
2023/03/21 02:20:44;;;;;;;0.77;0.77;;;9.30;99.90;;;;;;4998080;28;20049;-65
2023/03/21 02:23:51;;;;;;;0.30;0.30;;;9.30;99.90;;;;;;5009476;28;20085;-65
2023/03/21 02:26:44;;;;;;;0.15;0.15;;;9.20;99.90;;;;;;5009444;28;20042;-65
2023/03/21 02:29:13;;;;;;;1.17;1.13;;;9.30;99.90;;;;;;5003925;28;20057;-65
2023/03/21 02:31:56;;;;;;;1.00;0.90;;;9.30;99.90;;;;;;5008358;28;20050;-65
2023/03/21 02:34:59;;;;;;;2.80;1.27;;;9.30;99.90;;;;;;5009574;28;20073;-65
2023/03/21 02:37:46;;;;;;;0.30;0.30;;;9.30;99.90;;;;;;5005230;28;20043;-65
2023/03/21 02:40:39;;;;;;;0.40;0.40;;;9.30;99.90;;;;;;4996125;28;20125;-65
2023/03/21 02:43:08;;;;;;;0.10;0.10;;;9.30;99.90;;;;;;5006944;28;20046;-65
2023/03/21 02:45:49;;;;;;;0.00;0.00;;;9.30;99.90;;;;;;5008667;28;21045;-65
2023/03/21 02:48:23;;;;;;;2.92;0.93;;;9.30;99.90;;;;;;5005604;28;20046;-65
2023/03/21 02:50:51;;;;;;;2.90;1.70;;;9.30;99.90;;;;;;5003499;28;20433;-65
2023/03/21 02:53:21;;;;;;;3.03;1.95;;;9.30;99.90;;;;;;4997978;28;20137;-65
2023/03/21 02:55:47;;;;;;;0.70;0.70;;;9.30;99.90;;;;;;5006479;28;20440;-65
2023/03/21 02:58:17;;;;;;;0.10;0.10;;;9.30;99.90;;;;;;5004187;28;20065;-65
2023/03/21 03:00:43;;;;;;;0.40;0.40;;;9.30;99.90;;;;;;4999141;28;20133;-65
2023/03/21 03:03:13;;;;;;;0.90;0.90;;;9.30;99.90;;;;;;5011852;28;20409;-65
2023/03/21 03:05:47;;;;;;;0.38;0.38;;;9.30;99.90;;;;;;5001431;28;20132;-65
2023/03/21 03:08:15;;;;;;;0.55;0.55;;;9.30;99.90;;;;;;5008584;28;20038;-65
2023/03/21 03:11:06;;;;;;;1.38;0.82;;;9.30;99.90;;;;;;5012621;28;20077;-65
2023/03/21 03:13:41;;;;;;;0.55;0.55;;;9.20;99.90;;;;;;4992324;28;20497;-65
2023/03/21 03:16:10;;;;;;;4.88;1.42;;;9.30;99.90;;;;;;5009224;28;20547;-65
2023/03/21 03:18:51;;;;;;;0.50;0.50;;;9.30;99.90;;;;;;5011400;28;20423;-65
2023/03/21 03:21:31;;;;;;;0.20;0.20;;;9.30;99.90;;;;;;4998941;28;20046;-65
2023/03/21 03:24:03;;;;;;;0.30;0.30;;;9.30;99.90;;;;;;5005980;28;20070;-65
2023/03/21 03:26:39;;;;;;;0.90;0.90;;;9.30;99.90;;;;;;5012653;28;20049;-65
2023/03/21 03:29:09;;;;;;;0.60;0.60;;;9.30;99.90;;;;;;4997416;28;20099;-65
2023/03/21 03:31:40;;;;;;;0.85;0.85;;;9.30;99.90;;;;;;5003073;28;20527;-65
2023/03/21 03:34:12;;;;;;;3.75;2.03;;;9.30;99.90;;;;;;5013248;28;20046;-65
2023/03/21 03:36:46;;;;;;;1.33;1.23;;;9.30;99.90;;;;;;5001299;28;20046;-65
2023/03/21 03:39:14;;;;;;;1.38;1.20;;;9.30;99.90;;;;;;5006513;28;20042;-65
2023/03/21 03:41:53;;;;;;;1.92;1.75;;;9.30;99.90;;;;;;5012492;28;20100;-65
2023/03/21 03:44:19;;;;;;;1.33;1.27;;;9.30;99.90;;;;;;4994688;28;20513;-65
2023/03/21 03:46:57;;;;;;;1.90;0.90;;;9.30;99.90;;;;;;4995185;28;20508;-65
2023/03/21 03:49:27;;;;;;;0.85;0.85;;;9.30;99.90;;;;;;5013187;28;20049;-65
2023/03/21 03:51:58;;;;;;;0.30;0.30;;;9.30;99.90;;;;;;5010850;28;20057;-65
2023/03/21 03:54:32;;;;;;;0.70;0.70;;;9.30;99.90;;;;;;4995189;28;20042;-65
2023/03/21 03:56:58;;;;;;;1.38;1.27;;;9.30;99.90;;;;;;5011882;28;20073;-65
2023/03/21 03:59:24;;;;;;;0.57;0.57;;;9.30;99.90;;;;;;5006510;28;20092;-65
2023/03/21 04:01:50;;;;;;;1.15;1.10;;;9.30;99.90;;;;;;5000196;28;20608;-64
2023/03/21 04:04:16;;;;;;;0.60;0.60;;;9.30;99.90;;;;;;5013081;28;20130;-65
2023/03/21 04:06:44;;;;;;;0.22;0.22;;;9.30;99.90;;;;;;5010653;28;20054;-65
2023/03/21 04:09:10;;;;;;;0.47;0.47;;;9.30;99.90;;;;;;5011587;28;20034;-65
2023/03/21 04:11:36;;;;;;;2.63;1.17;;;9.30;99.90;;;;;;5005997;28;20558;-65
2023/03/21 04:14:02;;;;;;;0.68;0.68;;;9.30;99.90;;;;;;5003704;28;20556;-65
2023/03/21 04:16:30;;;;;;;0.22;0.22;;;9.30;99.90;;;;;;5000376;28;20049;-65
2023/03/21 04:18:55;;;;;;;0.50;0.50;;;9.30;99.90;;;;;;5012292;28;20077;-65
2023/03/21 04:21:21;;;;;;;0.63;0.50;;;9.30;99.90;;;;;;5004454;28;20511;-65
2023/03/21 04:23:47;;;;;;;0.10;0.10;;;9.30;99.90;;;;;;5001567;28;20044;-65
2023/03/21 04:26:12;;;;;;;0.22;0.22;;;9.30;99.90;;;;;;5007092;28;20037;-65
2023/03/21 04:28:38;;;;;;;0.47;0.47;;;9.30;99.90;;;;;;5010813;28;20119;-65
2023/03/21 04:31:06;;;;;;;1.60;1.25;;;9.30;99.90;;;;;;5010769;28;20401;-65
2023/03/21 04:33:31;;;;;;;2.08;1.05;;;9.30;99.90;;;;;;5000076;28;20046;-65
2023/03/21 04:35:57;;;;;;;0.35;0.35;;;9.30;99.90;;;;;;5009099;28;20052;-65
2023/03/21 04:38:25;;;;;;;1.80;1.20;;;9.30;99.90;;;;;;4997236;28;20113;-65
2023/03/21 04:40:51;;;;;;;0.10;0.10;;;9.30;99.90;;;;;;5004229;28;20047;-65
2023/03/21 04:43:17;;;;;;;0.65;0.65;;;9.30;99.90;;;;;;4992773;28;20046;-65
2023/03/21 04:45:42;;;;;;;5.85;1.08;;;9.30;99.90;;;;;;5010675;28;20160;-65
2023/03/21 04:48:08;;;;;;;1.48;1.38;;;9.30;99.90;;;;;;5011265;28;20042;-65
2023/03/21 04:50:34;;;;;;;1.13;1.13;;;9.30;99.90;;;;;;5004782;28;20042;-65
2023/03/21 04:52:59;;;;;;;0.43;0.43;;;9.30;99.90;;;;;;5004635;28;20068;-65
2023/03/21 04:55:28;;;;;;;0.90;0.90;;;9.30;99.90;;;;;;4999678;28;20148;-65
2023/03/21 04:57:53;;;;;;;8.63;3.13;;;9.30;99.90;;;;;;5003700;28;20092;-65
2023/03/21 05:00:19;;;;;;;0.10;0.10;;;9.30;99.90;;;;;;5009269;28;20073;-65
2023/03/21 05:02:45;;;;;;;0.32;0.32;;;9.30;99.90;;;;;;4999091;28;20075;-65
2023/03/21 05:05:12;;;;;;;0.45;0.45;;;9.30;99.90;;;;;;5002922;28;20043;-65
2023/03/21 05:07:39;;;;;;;0.75;0.75;;;9.30;99.90;;;;;;4997768;28;20069;-65
2023/03/21 05:10:07;;;;;;;4.05;2.03;;;9.40;99.90;;;;;;5011169;28;20038;-65
2023/03/21 05:12:32;;;;;;;0.88;0.68;;;9.30;99.90;;;;;;5009761;28;20077;-65
2023/03/21 05:14:58;;;;;;;1.17;1.08;;;9.40;99.90;;;;;;4994474;28;20085;-65
2023/03/21 05:17:27;;;;;;;0.15;0.15;;;9.30;99.90;;;;;;5004318;28;20053;-65
2023/03/21 05:19:55;;;;;;;0.40;0.40;;;9.40;99.90;;;;;;5011068;28;20061;-65
2023/03/21 05:22:23;;;;;;;0.73;0.73;;;9.30;99.90;;;;;;4998603;28;20100;-65
2023/03/21 05:24:49;;;;;;;2.05;1.85;;;9.30;99.90;;;;;;4995578;28;20132;-65
2023/03/21 05:27:32;;;;;;;0.57;0.57;;;9.40;99.90;;;;;;4997158;28;20050;-65
2023/03/21 05:30:07;;;;;;;0.87;0.87;;;9.30;99.90;;;;;;5018389;28;20081;-65
2023/03/21 05:32:32;;;;;;;0.20;0.20;;;9.30;99.90;;;;;;5009498;28;20460;-65
2023/03/21 05:34:58;;;;;;;0.43;0.40;;;9.30;99.90;;;;;;4999033;28;20066;-65
2023/03/21 05:37:24;;;;;;;0.10;0.10;;;9.30;99.90;;;;;;4999845;28;20052;-65
2023/03/21 05:39:50;;;;;;;0.10;0.10;;;9.30;99.90;;;;;;5002847;28;20406;-65
2023/03/21 05:42:17;;;;;;;0.30;0.30;;;9.30;99.90;;;;;;5004293;28;20129;-65
2023/03/21 05:44:44;;;;;;;0.10;0.10;;;9.30;99.90;;;;;;5010372;28;20119;-65
2023/03/21 05:47:10;;;;;;;0.15;0.15;;;9.40;99.90;;;;;;4998136;28;20052;-65
2023/03/21 05:49:36;;;;;;;0.55;0.55;;;9.30;99.90;;;;;;4994221;28;20065;-65
2023/03/21 05:52:01;;;;;;;1.27;1.17;;;9.30;99.90;;;;;;4993185;28;20434;-65
2023/03/21 05:54:27;;;;;;;1.10;1.02;;;9.30;99.90;;;;;;5009642;28;20112;-65
2023/03/21 05:56:53;;;;;;;0.10;0.10;;;9.30;99.90;;;;;;5002157;28;20034;-65
2023/03/21 05:59:18;;;;;;;0.10;0.10;;;9.30;99.90;;;;;;5001178;28;20127;-65
2023/03/21 06:01:44;;;;;;;0.17;0.17;;;9.40;99.90;;;;;;5003427;28;20042;-65
2023/03/21 06:04:10;;;;;;;0.20;0.20;;;9.40;99.90;;;;;;5006156;28;20050;-65
2023/03/21 06:06:35;;;;;;;0.38;0.38;;;9.40;99.90;;;;;;4991164;28;20088;-65
2023/03/21 06:09:01;;;;;;;0.50;0.50;;;9.40;99.90;;;;;;5000187;28;20401;-65
2023/03/21 06:11:33;;;;;;;0.57;0.57;;;9.40;99.90;;;;;;5008561;28;20041;-65
2023/03/21 06:13:59;;;;;;;0.10;0.10;;;9.40;99.90;;;;;;5002945;28;20125;-65
2023/03/21 06:16:24;;;;;;;0.10;0.10;;;9.40;99.90;;;;;;4996505;28;20164;-65
2023/03/21 06:18:50;;;;;;;0.10;0.10;;;9.40;99.90;;;;;;5009938;28;20046;-65
2023/03/21 06:21:16;;;;;;;0.52;0.52;;;9.40;99.90;;;;;;4999945;28;20046;-65
2023/03/21 06:23:41;;;;;;;0.10;0.10;;;9.40;99.90;;;;;;4995843;28;20053;-65
2023/03/21 06:26:07;;;;;;;0.63;0.63;;;9.40;99.90;;;;;;5002122;28;20046;-65
2023/03/21 06:28:32;;;;;;;3.40;0.98;;;9.40;99.90;;;;;;5009016;28;20060;-65
2023/03/21 06:30:58;;;;;;;0.10;0.10;;;9.40;99.90;;;;;;5006742;28;20065;-65
2023/03/21 06:33:24;;;;;;;0.82;0.82;;;9.40;99.90;;;;;;4998298;28;20387;-65
2023/03/21 06:35:55;;;;;;;0.28;0.28;;;9.40;99.90;;;;;;5007639;28;20045;-65
2023/03/21 06:38:21;;;;;;;0.28;0.28;;;9.40;99.90;;;;;;5009274;28;20077;-65
2023/03/21 06:40:46;;;;;;;3.97;1.50;;;9.40;99.90;;;;;;5002791;28;20084;-65
2023/03/21 06:43:12;;;;;;;0.10;0.10;;;9.40;99.90;;;;;;5003285;28;20093;-65
2023/03/21 06:45:38;;;;;;;0.20;0.20;;;9.40;99.90;;;;;;5001442;28;20417;-65
2023/03/21 06:48:04;;;;;;;0.47;0.40;;;9.50;99.90;;;;;;4994800;28;20034;-65
2023/03/21 06:50:30;;;;;;;0.30;0.30;;;9.50;99.90;;;;;;5003916;28;20521;-65
2023/03/21 06:52:58;;;;;;;0.10;0.10;;;9.50;99.90;;;;;;5005880;28;20034;-66
2023/03/21 06:55:27;;;;;;;0.50;0.50;;;9.40;99.90;;;;;;4996464;28;20050;-66
2023/03/21 06:57:54;;;;;;;0.30;0.30;;;9.50;99.90;;;;;;5003841;28;20049;-65
2023/03/21 07:00:20;;;;;;;0.10;0.10;;;9.50;99.90;;;;;;5006221;28;20046;-65
2023/03/21 07:02:47;;;;;;;0.20;0.20;;;9.50;99.90;;;;;;4994793;28;20053;-65
2023/03/21 07:05:12;;;;;;;0.38;0.38;;;9.50;99.90;;;;;;5006862;28;20095;-66
2023/03/21 07:07:39;;;;;;;0.10;0.10;;;9.50;99.90;;;;;;5007846;28;20562;-65
2023/03/21 07:10:06;;;;;;;0.10;0.10;;;9.50;99.90;;;;;;5001052;28;20136;-66
2023/03/21 07:12:33;;;;;;;0.10;0.10;;;9.50;99.90;;;;;;5001324;28;20548;-66
2023/03/21 07:14:59;;;;;;;0.25;0.25;;;9.50;99.90;;;;;;5007929;28;20054;-65
2023/03/21 07:17:25;;;;;;;0.52;0.52;;;9.50;99.90;;;;;;5007807;28;20041;-66
2023/03/21 07:19:51;;;;;;;0.57;0.57;;;9.50;99.90;;;;;;5000456;28;20046;-66
2023/03/21 07:22:17;;;;;;;0.40;0.40;;;9.50;99.90;;;;;;5002131;28;20042;-66
2023/03/21 07:24:43;;;;;;;0.25;0.25;;;9.50;99.90;;;;;;5007046;28;20081;-66
2023/03/21 07:27:08;;;;;;;0.85;0.85;;;9.50;99.90;;;;;;5006406;28;20053;-66
2023/03/21 07:29:34;;;;;;;0.35;0.35;;;9.50;99.90;;;;;;5010207;28;20042;-66
2023/03/21 07:32:00;;;;;;;0.20;0.20;;;9.50;99.90;;;;;;5000319;28;20048;-66
2023/03/21 07:34:30;;;;;;;0.43;0.43;;;9.50;99.90;;;;;;5003687;28;20038;-66
2023/03/21 07:36:56;;;;;;;0.17;0.17;;;9.50;99.90;;;;;;5000917;28;20120;-66
2023/03/21 07:39:22;;;;;;;0.20;0.20;;;9.60;99.90;;;;;;5002098;28;20392;-64
2023/03/21 07:41:48;;;;;;;0.47;0.28;;;9.50;99.90;;;;;;5010341;28;20045;-66
2023/03/21 07:44:14;;;;;;;0.13;0.13;;;9.60;99.90;;;;;;5006077;28;20553;-66
2023/03/21 07:46:40;;;;;;;0.38;0.38;;;9.60;99.90;;;;;;4995103;28;20490;-66
2023/03/21 07:49:07;;;;;;;0.50;0.50;;;9.60;99.90;;;;;;5002980;28;20049;-66
2023/03/21 07:51:34;;;;;;;0.25;0.25;;;9.60;99.90;;;;;;5009916;28;20421;-66
2023/03/21 07:54:00;;;;;;;0.90;0.90;;;9.60;99.90;;;;;;4999633;28;20054;-66
2023/03/21 07:56:27;;;;;;;0.63;0.52;;;9.60;99.90;;;;;;5005702;28;20528;-67
2023/03/21 07:58:52;;;;;;;0.28;0.17;;;9.60;99.90;;;;;;5004451;28;20061;-66
2023/03/21 08:01:18;;;;;;;1.40;1.00;;;9.60;99.90;;;;;;4997750;28;20112;-66
2023/03/21 08:03:43;;;;;;;0.40;0.40;;;9.60;99.90;;;;;;5002914;28;20042;-67
2023/03/21 08:06:09;;;;;;;0.30;0.30;;;9.60;99.90;;;;;;5011169;28;20806;-67
2023/03/21 08:08:35;;;;;;;0.45;0.45;;;9.60;99.90;;;;;;5007037;28;20236;-66
2023/03/21 08:11:03;;;;;;;0.63;0.63;;;9.60;99.90;;;;;;5001564;28;20038;-66
2023/03/21 08:13:29;;;;;;;0.38;0.38;;;9.60;99.90;;;;;;5006941;28;20088;-66
2023/03/21 08:15:55;;;;;;;0.20;0.20;;;9.60;99.90;;;;;;5004082;28;20034;-66
2023/03/21 08:18:20;;;;;;;0.85;0.85;;;9.60;99.90;;;;;;5007398;28;20046;-66
2023/03/21 08:20:57;;;;;;;0.38;0.38;;;9.60;99.90;;;;;;5005002;28;20048;-67
2023/03/21 08:23:23;;;;;;;0.40;0.40;;;9.60;99.90;;;;;;5004287;28;20095;-66
2023/03/21 08:25:53;;;;;;;0.28;0.28;;;9.60;99.90;;;;;;5004809;28;20433;-66
2023/03/21 08:28:20;;;;;;;0.32;0.32;;;9.60;99.90;;;;;;5003845;28;20045;-67
2023/03/21 08:30:46;;;;;;;1.63;1.52;;;9.60;99.90;;;;;;5011361;28;20053;-67
2023/03/21 08:33:16;;;;;;;0.10;0.10;;;9.60;99.90;;;;;;5001720;28;20057;-68
2023/03/21 08:35:42;;;;;;;0.82;0.82;;;9.60;99.90;;;;;;5008612;28;20389;-68
2023/03/21 08:38:08;;;;;;;2.65;0.90;;;9.60;99.90;;;;;;5012100;28;20038;-68
2023/03/21 08:40:34;;;;;;;0.10;0.10;;;9.60;99.90;;;;;;5004073;28;20060;-67
2023/03/21 08:43:00;;;;;;;0.10;0.10;;;9.60;99.90;;;;;;5005296;28;20391;-68
2023/03/21 08:45:26;;;;;;;2.83;1.00;;;9.60;99.90;;;;;;5009189;28;20053;-68
2023/03/21 08:47:52;;;;;;;1.85;1.17;;;9.60;99.90;;;;;;5011469;28;20050;-68
2023/03/21 08:50:21;;;;;;;0.57;0.57;;;9.60;99.90;;;;;;4998987;28;20033;-68
2023/03/21 08:52:48;;;;;;;0.77;0.70;;;9.60;99.90;;;;;;5004047;28;20542;-68
2023/03/21 08:55:15;;;;;;;0.30;0.30;;;9.60;99.90;;;;;;5007510;28;20046;-67
2023/03/21 08:57:41;;;;;;;0.50;0.50;;;9.70;99.90;;;;;;5007967;28;20041;-67
2023/03/21 09:00:19;;;;;;;1.85;1.70;;;9.70;99.90;;;;;;4992692;28;20041;-67
2023/03/21 09:02:47;;;;;;;0.20;0.20;;;9.70;99.90;;;;;;4996228;28;20042;-67
2023/03/21 09:05:15;;;;;;;0.98;0.98;;;9.70;99.90;;;;;;5006434;28;20509;-67
2023/03/21 09:07:41;;;;;;;1.13;1.13;;;9.70;99.90;;;;;;5010761;28;20156;-67
2023/03/21 09:10:10;;;;;;;0.80;0.80;;;9.70;99.90;;;;;;4999728;28;20042;-67
2023/03/21 09:12:36;;;;;;;0.77;0.77;;;9.70;99.90;;;;;;5010220;28;20041;-67
2023/03/21 09:15:03;;;;;;;1.88;0.95;;;9.70;99.90;;;;;;4994697;28;20120;-67
2023/03/21 09:17:30;;;;;;;0.20;0.20;;;9.70;99.90;;;;;;5004565;28;20057;-67
2023/03/21 09:19:58;;;;;;;0.57;0.57;;;9.70;99.90;;;;;;5005697;28;20048;-67
2023/03/21 09:22:24;;;;;;;0.45;0.45;;;9.70;99.90;;;;;;5007957;28;20516;-67
2023/03/21 09:24:50;;;;;;;0.80;0.80;;;9.70;99.90;;;;;;5001052;28;20046;-67
2023/03/21 09:27:24;;;;;;;0.57;0.57;;;9.70;99.90;;;;;;5008466;28;20061;-67
2023/03/21 09:29:49;;;;;;;0.65;0.65;;;9.70;99.90;;;;;;5008709;28;20057;-67
2023/03/21 09:32:17;;;;;;;1.65;1.00;;;9.70;99.90;;;;;;4999516;28;20404;-68
2023/03/21 09:34:43;;;;;;;0.82;0.82;;;9.70;99.90;;;;;;5010182;28;20439;-69
2023/03/21 09:37:12;;;;;;;1.95;1.77;;;9.70;99.90;;;;;;5009372;28;20547;-69
2023/03/21 09:39:41;;;;;;;1.45;1.38;;;9.60;99.90;;;;;;5009894;28;20041;-69
2023/03/21 09:42:36;;;;;;;1.20;1.17;;;9.70;99.90;;;;;;4999310;28;20053;-69
2023/03/21 09:45:28;;;;;;;0.50;0.50;;;9.70;99.90;;;;;;4997089;28;20090;-69
2023/03/21 09:47:55;;;;;;;0.25;0.25;;;9.70;99.90;;;;;;5005026;28;20046;-69
2023/03/21 09:50:40;;;;;;;0.40;0.40;;;9.70;99.90;;;;;;5006404;28;20056;-69
2023/03/21 09:53:24;;;;;;;0.25;0.25;;;9.70;99.90;;;;;;5005953;28;20397;-69
2023/03/21 09:55:52;;;;;;;0.38;0.38;;;9.80;99.90;;;;;;4998676;28;20054;-70
2023/03/21 09:58:27;;;;;;;0.35;0.35;;;9.80;99.90;;;;;;4997473;28;20425;-69
2023/03/21 10:00:59;;;;;;;0.65;0.65;;;9.90;99.90;;;;;;5009483;28;20064;-70
2023/03/21 10:03:33;;;;;;;7.03;1.45;;;9.90;99.90;;;;;;5009872;28;20381;-69
2023/03/21 10:06:06;;;;;;;0.10;0.10;;;10.00;99.90;;;;;;4994401;28;20046;-69
2023/03/21 10:08:35;;;;;;;1.15;1.15;;;10.00;99.90;;;;;;4998415;28;20045;-69
2023/03/21 10:11:04;;;;;;;7.97;1.15;;;10.00;99.90;;;;;;4996718;28;20085;-69
2023/03/21 10:13:34;;;;;;;0.75;0.75;;;10.00;99.90;;;;;;5004593;28;20393;-69
2023/03/21 10:16:25;;;;;;;2.08;1.02;;;10.10;99.90;;;;;;5007582;28;20045;-68
2023/03/21 10:18:52;;;;;;;0.32;0.32;;;10.10;99.90;;;;;;4994689;28;20512;-69
2023/03/21 10:21:26;;;;;;;0.70;0.70;;;10.20;99.90;;;;;;5008128;28;20053;-69
2023/03/21 10:23:56;;;;;;;0.85;0.85;;;10.30;99.90;;;;;;5008147;28;20064;-69
2023/03/21 10:26:25;;;;;;;1.05;1.05;;;10.40;99.90;;;;;;4996775;28;20060;-68
2023/03/21 10:28:53;;;;;;;6.93;1.02;;;10.60;99.90;;;;;;5010226;28;20375;-67
2023/03/21 10:31:24;;;;;;;0.35;0.35;;;10.70;99.90;;;;;;4999423;28;20073;-68
2023/03/21 10:33:51;;;;;;;1.45;1.15;;;10.80;99.90;;;;;;5004346;28;20050;-68
2023/03/21 10:36:24;;;;;;;0.10;0.10;;;10.70;99.90;;;;;;5007221;28;20464;-68
2023/03/21 10:38:57;;;;;;;0.10;0.10;;;10.70;99.90;;;;;;5006586;28;20073;-67
2023/03/21 10:41:23;;;;;;;0.13;0.13;;;10.70;99.90;;;;;;4993604;28;20529;-67
2023/03/21 10:44:13;;;;;;;0.20;0.20;;;10.70;99.90;;;;;;5007623;28;20034;-67
2023/03/21 10:46:52;;;;;;;0.13;0.13;;;10.80;99.90;;;;;;4997075;28;20046;-69
2023/03/21 10:49:20;;;;;;;0.40;0.40;;;10.80;99.90;;;;;;5001971;28;20077;-69
2023/03/21 10:51:48;;;;;;;0.10;0.10;;;10.80;99.90;;;;;;5009911;28;20082;-68
2023/03/21 10:54:17;;;;;;;0.65;0.65;;;10.90;99.90;;;;;;5009842;28;20081;-69
2023/03/21 10:56:53;;;;;;;0.68;0.68;;;10.80;99.90;;;;;;5008337;28;20049;-69
2023/03/21 10:59:21;;;;;;;0.57;0.57;;;10.80;99.90;;;;;;4997181;28;20113;-68
2023/03/21 11:01:54;;;;;;;0.17;0.17;;;10.80;99.90;;;;;;5006234;28;20197;-69
2023/03/21 11:04:23;;;;;;;0.40;0.40;;;10.90;99.90;;;;;;5009843;28;20030;-69
2023/03/21 11:06:58;;;;;;;0.10;0.10;;;10.90;99.90;;;;;;5002641;28;20050;-68
2023/03/21 11:09:41;;;;;;;0.35;0.35;;;11.00;99.90;;;;;;5002143;28;20041;-68
2023/03/21 11:12:18;;;;;;;1.35;0.63;;;11.10;99.90;;;;;;5002563;28;20049;-69
2023/03/21 11:14:48;;;;;;;3.60;1.65;;;11.10;99.90;;;;;;5002241;28;20042;-69
2023/03/21 11:17:17;;;;;;;0.13;0.13;;;11.00;99.90;;;;;;5002459;28;20548;-69
2023/03/21 11:19:52;;;;;;;3.25;1.10;;;11.10;99.90;;;;;;5008601;28;20092;-69
2023/03/21 11:22:20;;;;;;;1.05;0.95;;;11.10;99.90;;;;;;4999792;28;20049;-69
2023/03/21 11:24:52;;;;;;;3.53;1.55;;;11.10;99.90;;;;;;5002105;28;20490;-68
2023/03/21 11:27:17;;;;;;;1.98;1.42;;;11.00;99.90;;;;;;5010811;28;20080;-69
2023/03/21 11:29:47;;;;;;;0.10;0.10;;;11.00;99.90;;;;;;5013097;28;20057;-69
2023/03/21 11:32:28;;;;;;;0.98;0.98;;;11.00;99.90;;;;;;5000289;28;20133;-68
2023/03/21 11:35:01;;;;;;;0.57;0.57;;;11.00;99.90;;;;;;5008780;28;20108;-69
2023/03/21 11:37:50;;;;;;;2.50;1.15;;;11.00;99.90;;;;;;4999642;28;20041;-68
2023/03/21 11:40:26;;;;;;;0.57;0.57;;;11.00;99.90;;;;;;5004980;28;20041;-68
2023/03/21 11:43:01;;;;;;;0.10;0.10;;;11.00;99.90;;;;;;5009596;28;20042;-68
2023/03/21 11:45:32;;;;;;;0.82;0.82;;;11.00;99.90;;;;;;5012559;28;20184;-68
2023/03/21 11:48:00;;;;;;;0.98;0.90;;;11.00;99.90;;;;;;5005911;28;20478;-68
2023/03/21 11:50:32;;;;;;;0.52;0.52;;;11.00;99.90;;;;;;5003920;28;20681;-68
2023/03/21 11:53:37;;;;;;;0.10;0.10;;;11.00;99.90;;;;;;5010968;28;20157;-68
2023/03/21 11:56:28;;;;;;;0.22;0.22;;;11.00;99.90;;;;;;5002737;28;20500;-68
2023/03/21 11:59:14;;;;;;;0.17;0.17;;;11.00;99.90;;;;;;4999961;28;20038;-68
2023/03/21 12:01:58;;;;;;;0.82;0.82;;;11.00;99.90;;;;;;5012837;28;20440;-68
2023/03/21 12:04:39;;;;;;;0.38;0.38;;;11.00;99.90;;;;;;5005744;28;20128;-68
2023/03/21 12:07:32;;;;;;;0.68;0.68;;;11.00;99.90;;;;;;5010234;28;20045;-68
2023/03/21 12:10:29;;;;;;;1.45;1.35;;;10.90;99.90;;;;;;5010765;28;20030;-68
2023/03/21 12:13:14;;;;;;;0.10;0.10;;;11.00;99.90;;;;;;5002158;28;20088;-68
2023/03/21 12:16:11;;;;;;;0.13;0.13;;;11.10;99.90;;;;;;5002414;28;20060;-68
2023/03/21 12:18:55;;;;;;;0.93;0.47;;;11.10;99.90;;;;;;5002226;28;20083;-68
2023/03/21 12:21:46;;;;;;;2.17;1.65;;;11.30;99.90;;;;;;4999428;28;20493;-68
2023/03/21 12:24:19;;;;;;;0.38;0.38;;;11.30;99.90;;;;;;4999417;28;20058;-68
2023/03/21 12:27:09;;;;;;;0.88;0.88;;;11.30;99.90;;;;;;5000397;28;20519;-68
2023/03/21 12:29:46;;;;;;;0.75;0.75;;;11.30;99.90;;;;;;5006534;28;20046;-68
2023/03/21 12:32:24;;;;;;;1.70;1.60;;;11.30;99.90;;;;;;4999770;28;20057;-68
2023/03/21 12:35:20;;;;;;;0.35;0.35;;;11.30;99.90;;;;;;5012557;28;20046;-68
2023/03/21 12:38:05;;;;;;;0.95;0.95;;;11.40;99.90;;;;;;5000668;28;20046;-68
2023/03/21 12:40:48;;;;;;;0.63;0.63;;;11.40;99.90;;;;;;4997114;28;20490;-68
2023/03/21 12:43:39;;;;;;;0.65;0.65;;;11.50;99.90;;;;;;4996511;28;20038;-68
2023/03/21 12:46:14;;;;;;;0.25;0.25;;;11.50;99.90;;;;;;5000915;28;20105;-68
2023/03/21 12:48:52;;;;;;;0.95;0.95;;;11.50;99.90;;;;;;5010000;28;20038;-68
2023/03/21 12:51:23;;;;;;;41.95;5.07;;;11.50;99.90;;;;;;4999141;28;20064;-68
2023/03/21 12:53:48;;;;;;;0.20;0.20;;;11.50;99.90;;;;;;5009711;28;20390;-68
2023/03/21 12:56:45;;;;;;;0.15;0.15;;;11.50;99.90;;;;;;5009911;28;20053;-68
2023/03/21 12:59:18;;;;;;;0.38;0.38;;;11.50;99.90;;;;;;4992884;28;20042;-68
2023/03/21 13:01:45;;;;;;;0.57;0.57;;;11.60;99.90;;;;;;5008716;28;20046;-68
2023/03/21 13:04:29;;;;;;;1.42;1.38;;;11.70;99.90;;;;;;4997921;28;20819;-67
2023/03/21 13:06:55;;;;;;;;;;;11.80;99.90;;;;;;5009395;28;20528;-68
2023/03/21 13:09:35;;;;;;;0.10;0.10;;;11.90;99.90;;;;;;5007866;28;19922;-68
2023/03/21 13:12:25;;;;;;;0.25;0.25;;;11.90;99.90;;;;;;4999951;28;20038;-68
2023/03/21 13:15:24;;;;;;;1.75;1.65;;;12.00;99.90;;;;;;4992801;28;20062;-68